Time;durP1;ratioP1;P1;durP2;ratioP2;P2;SDS_P1;SDS_P2;PMS_P1;PMS_P2;Temp;Humidity;BMP_temperature;BMP_pressure;BME280_temperature;BME280_humidity;BME280_pressure;Samples;Min_cycle;Max_cycle;Signal;HPM_P1;HPM_P2
2022/07/06 00:01:30;;;;;;;;;;;13.50;99.90;;;;;;5019449;28;19929;-82
2022/07/06 00:03:56;;;;;;;;;;;13.40;99.90;;;;;;5017002;28;19976;-81
2022/07/06 00:06:22;;;;;;;;;;;13.30;99.90;;;;;;5013596;28;19933;-83
2022/07/06 00:08:48;;;;;;;;;;;13.40;99.90;;;;;;5011430;28;20012;-82
2022/07/06 00:11:13;;;;;;;;;;;13.30;99.90;;;;;;5011341;28;20431;-82
2022/07/06 00:13:39;;;;;;;;;;;13.20;99.90;;;;;;5012480;28;19967;-82
2022/07/06 00:16:05;;;;;;;;;;;13.20;99.90;;;;;;5012121;28;19929;-82
2022/07/06 00:18:31;;;;;;;;;;;13.10;99.90;;;;;;5013260;28;19933;-82
2022/07/06 00:20:57;;;;;;;;;;;13.00;99.90;;;;;;5009742;28;19959;-83
2022/07/06 00:23:23;;;;;;;;;;;13.00;99.90;;;;;;5011249;28;20012;-83
2022/07/06 00:25:48;;;;;;;;;;;13.00;99.90;;;;;;5014764;28;19940;-83
2022/07/06 00:28:14;;;;;;;;;;;13.10;99.90;;;;;;5014307;28;20295;-83
2022/07/06 00:30:40;;;;;;;;;;;13.00;99.90;;;;;;5015001;28;19999;-83
2022/07/06 00:33:06;;;;;;;;;;;13.10;99.90;;;;;;5011662;28;20426;-83
2022/07/06 00:35:32;;;;;;;;;;;13.00;99.90;;;;;;5009579;28;20408;-82
2022/07/06 00:37:58;;;;;;;;;;;13.00;99.90;;;;;;5012945;28;19928;-82
2022/07/06 00:40:24;;;;;;;;;;;13.10;99.90;;;;;;5018261;28;20360;-82
2022/07/06 00:42:49;;;;;;;;;;;13.00;99.90;;;;;;5015462;28;19974;-82
2022/07/06 00:45:16;;;;;;;;;;;13.10;99.90;;;;;;5013861;28;19940;-83
2022/07/06 00:47:42;;;;;;;;;;;13.10;99.90;;;;;;5009835;28;19931;-83
2022/07/06 00:50:15;;;;;;;;;;;13.20;99.90;;;;;;4994597;28;20344;-83
2022/07/06 00:52:51;;;;;;;;;;;13.20;99.90;;;;;;5013165;28;20599;-82
2022/07/06 00:55:21;;;;;;;;;;;13.20;99.90;;;;;;5011993;28;19933;-83
2022/07/06 00:57:47;;;;;;;;;;;13.20;99.90;;;;;;5011844;28;19933;-82
2022/07/06 01:00:14;;;;;;;;;;;13.30;99.90;;;;;;5008320;28;19936;-82
2022/07/06 01:02:40;;;;;;;;;;;13.30;99.90;;;;;;5010010;28;19929;-83
2022/07/06 01:05:07;;;;;;;;;;;13.30;99.90;;;;;;5013389;28;19939;-83
2022/07/06 01:07:33;;;;;;;;;;;13.20;99.90;;;;;;5012355;28;20002;-83
2022/07/06 01:09:59;;;;;;;;;;;13.40;99.90;;;;;;5013662;28;19936;-83
2022/07/06 01:12:25;;;;;;;;;;;13.30;99.90;;;;;;5015855;28;20015;-82
2022/07/06 01:14:51;;;;;;;;;;;13.30;99.90;;;;;;5012781;28;19929;-82
2022/07/06 01:17:17;;;;;;;;;;;13.40;99.90;;;;;;5011370;28;19929;-82
2022/07/06 01:19:42;;;;;;;;;;;13.20;99.90;;;;;;5014767;28;19972;-83
2022/07/06 01:22:08;;;;;;;;;;;13.30;99.90;;;;;;5008187;28;20033;-83
2022/07/06 01:24:35;;;;;;;;;;;13.40;99.90;;;;;;4993920;28;19959;-82
2022/07/06 01:27:01;;;;;;;;;;;13.40;99.90;;;;;;4994593;28;19929;-82
2022/07/06 01:29:26;;;;;;;;;;;13.40;99.90;;;;;;5014321;28;19959;-82
2022/07/06 01:31:52;;;;;;;;;;;13.40;99.90;;;;;;5028630;28;19928;-82
2022/07/06 01:34:18;;;;;;;;;;;13.40;99.90;;;;;;4990861;28;20430;-83
2022/07/06 01:36:44;;;;;;;;;;;13.40;99.90;;;;;;4982621;28;19968;-82
2022/07/06 01:39:10;;;;;;;;;;;13.40;99.90;;;;;;5016288;28;20395;-83
2022/07/06 01:41:36;;;;;;;;;;;13.40;99.90;;;;;;5014665;28;19933;-82
2022/07/06 01:44:02;;;;;;;;;;;13.40;99.90;;;;;;5014014;28;20720;-82
2022/07/06 01:46:27;;;;;;;;;;;13.50;99.90;;;;;;5012882;28;19936;-83
2022/07/06 01:48:53;;;;;;;;;;;13.40;99.90;;;;;;5010893;28;19933;-82
2022/07/06 01:51:19;;;;;;;;;;;13.40;99.90;;;;;;4994604;28;19947;-82
2022/07/06 01:53:45;;;;;;;;;;;13.40;99.90;;;;;;5010164;28;19929;-83
2022/07/06 01:56:11;;;;;;;;;;;13.50;99.90;;;;;;5010885;28;20722;-83
2022/07/06 01:58:37;;;;;;;;;;;13.60;99.90;;;;;;5013500;28;20019;-82
2022/07/06 02:01:10;;;;;;;;;;;13.70;99.90;;;;;;5015299;28;19928;-82
2022/07/06 02:03:36;;;;;;;;;;;13.70;99.90;;;;;;4998953;28;20390;-82
2022/07/06 02:06:02;;;;;;;;;;;13.70;99.90;;;;;;5010238;28;20011;-83
2022/07/06 02:08:27;;;;;;;;;;;13.70;99.90;;;;;;5014658;28;20002;-82
2022/07/06 02:10:53;;;;;;;;;;;13.70;99.90;;;;;;5015694;28;19929;-83
2022/07/06 02:13:19;;;;;;;;;;;13.80;99.90;;;;;;5013143;28;19968;-82
2022/07/06 02:15:45;;;;;;;;;;;13.80;99.90;;;;;;5011831;28;19929;-83
2022/07/06 02:18:11;;;;;;;;;;;13.80;99.90;;;;;;5010777;28;20298;-82
2022/07/06 02:20:36;;;;;;;;;;;13.80;99.90;;;;;;5013261;28;22287;-82
2022/07/06 02:23:02;;;;;;;;;;;13.80;99.90;;;;;;4999482;28;19935;-83
2022/07/06 02:25:28;;;;;;;;;;;13.70;99.90;;;;;;5011037;28;20577;-83
2022/07/06 02:27:54;;;;;;;;;;;13.80;99.90;;;;;;4994136;28;19951;-84
2022/07/06 02:30:20;;;;;;;;;;;13.90;99.90;;;;;;5013976;28;19928;-83
2022/07/06 02:32:45;;;;;;;;;;;13.70;99.90;;;;;;5015834;28;20670;-83
2022/07/06 02:35:11;;;;;;;;;;;13.70;99.90;;;;;;5015887;28;19937;-84
2022/07/06 02:37:37;;;;;;;;;;;13.80;99.90;;;;;;4998483;28;19971;-83
2022/07/06 02:40:03;;;;;;;;;;;13.80;99.90;;;;;;5030146;28;19929;-82
2022/07/06 02:42:28;;;;;;;;;;;13.90;99.90;;;;;;5010161;28;19990;-82
2022/07/06 02:44:54;;;;;;;;;;;13.90;99.90;;;;;;4997033;28;19933;-83
2022/07/06 02:47:20;;;;;;;;;;;13.80;99.90;;;;;;5016299;28;19936;-82
2022/07/06 02:49:45;;;;;;;;;;;13.80;99.90;;;;;;5015710;28;19936;-82
2022/07/06 02:52:11;;;;;;;;;;;13.80;99.90;;;;;;5015425;28;19933;-82
2022/07/06 02:54:37;;;;;;;;;;;13.90;99.90;;;;;;5007983;28;21009;-82
2022/07/06 02:57:03;;;;;;;;;;;13.90;99.90;;;;;;5015734;28;20106;-82
2022/07/06 02:59:28;;;;;;;;;;;13.90;99.90;;;;;;5015953;28;19959;-81
2022/07/06 03:01:54;;;;;;;;;;;13.70;99.90;;;;;;5012827;28;19929;-82
2022/07/06 03:04:20;;;;;;;;;;;13.70;99.90;;;;;;5012732;28;19932;-82
2022/07/06 03:06:45;;;;;;;;;;;13.50;99.90;;;;;;5009378;28;19941;-82
2022/07/06 03:09:11;;;;;;;;;;;13.50;99.90;;;;;;5015627;28;19936;-82
2022/07/06 03:11:37;;;;;;;;;;;13.70;99.90;;;;;;5010015;28;19929;-82
2022/07/06 03:14:03;;;;;;;;;;;13.70;99.90;;;;;;4989712;28;19955;-83
2022/07/06 03:16:29;;;;;;;;;;;13.70;99.90;;;;;;5012203;28;19929;-82
2022/07/06 03:18:55;;;;;;;;;;;13.70;99.90;;;;;;5010837;28;19936;-83
2022/07/06 03:21:20;;;;;;;;;;;13.70;99.90;;;;;;5010973;28;19929;-82
2022/07/06 03:23:46;;;;;;;;;;;13.70;99.90;;;;;;5010187;28;20127;-82
2022/07/06 03:26:11;;;;;;;;;;;13.70;99.90;;;;;;5013824;28;20414;-82
2022/07/06 03:28:37;;;;;;;;;;;13.70;99.90;;;;;;5012471;28;19936;-82
2022/07/06 03:31:03;;;;;;;;;;;13.60;99.90;;;;;;5012163;28;19980;-82
2022/07/06 03:33:28;;;;;;;;;;;13.60;99.90;;;;;;4994228;28;19933;-82
2022/07/06 03:35:54;;;;;;;;;;;13.60;99.90;;;;;;5017609;28;19925;-82
2022/07/06 03:38:20;;;;;;;;;;;13.60;99.90;;;;;;5030846;28;19964;-83
2022/07/06 03:40:45;;;;;;;;;;;13.50;99.90;;;;;;5014808;28;20405;-82
2022/07/06 03:43:11;;;;;;;;;;;13.60;99.90;;;;;;4999076;28;20052;-82
2022/07/06 03:45:37;;;;;;;;;;;13.70;99.90;;;;;;5015915;28;20310;-82
2022/07/06 03:48:02;;;;;;;;;;;13.60;99.90;;;;;;5011392;28;20429;-82
2022/07/06 03:50:29;;;;;;;;;;;13.60;99.90;;;;;;5014664;28;20015;-82
2022/07/06 03:52:54;;;;;;;;;;;13.60;99.90;;;;;;5014339;28;20364;-82
2022/07/06 03:55:20;;;;;;;;;;;13.60;99.90;;;;;;5015410;28;19929;-82
2022/07/06 03:57:46;;;;;;;;;;;13.70;99.90;;;;;;5011565;28;19983;-82
2022/07/06 04:00:12;;;;;;;;;;;13.70;99.90;;;;;;5012859;28;19933;-83
2022/07/06 04:02:37;;;;;;;;;;;13.70;99.90;;;;;;5014528;28;19929;-82
2022/07/06 04:05:03;;;;;;;;;;;13.70;99.90;;;;;;5015327;28;19935;-81
2022/07/06 04:07:30;;;;;;;;;;;13.70;99.90;;;;;;5014657;28;20016;-82
2022/07/06 04:09:55;;;;;;;;;;;13.80;99.90;;;;;;5016183;28;19980;-83
2022/07/06 04:12:22;;;;;;;;;;;13.80;99.90;;;;;;5016307;28;20382;-83
2022/07/06 04:14:48;;;;;;;;;;;13.80;99.90;;;;;;5011457;28;20039;-83
2022/07/06 04:19:58;;;;;;;;;;;13.90;99.90;;;;;;5011342;28;19932;-82
2022/07/06 04:22:24;;;;;;;;;;;14.00;99.90;;;;;;5018737;28;19999;-82
2022/07/06 04:24:50;;;;;;;;;;;14.00;99.90;;;;;;5002302;28;19933;-82
2022/07/06 04:27:16;;;;;;;;;;;14.00;99.90;;;;;;5021075;28;19935;-83
2022/07/06 04:29:41;;;;;;;;;;;14.00;99.90;;;;;;5018568;28;20401;-82
2022/07/06 04:32:07;;;;;;;;;;;14.00;99.90;;;;;;5017014;28;20020;-83
2022/07/06 04:34:33;;;;;;;;;;;14.00;99.90;;;;;;5019093;28;20036;-83
2022/07/06 04:36:58;;;;;;;;;;;14.10;99.90;;;;;;5017080;28;19991;-82
2022/07/06 04:39:24;;;;;;;;;;;14.10;99.90;;;;;;5018606;28;19928;-83
2022/07/06 04:41:50;;;;;;;;;;;14.20;99.90;;;;;;5011650;28;19929;-83
2022/07/06 04:44:15;;;;;;;;;;;14.20;99.90;;;;;;5016437;28;19935;-82
2022/07/06 04:46:41;;;;;;;;;;;14.20;99.90;;;;;;5019821;28;20337;-83
2022/07/06 04:49:07;;;;;;;;;;;14.30;99.90;;;;;;5012209;28;20374;-82
2022/07/06 04:51:33;;;;;;;;;;;14.40;99.90;;;;;;5016496;28;19933;-83
2022/07/06 04:53:58;;;;;;;;;;;14.40;99.90;;;;;;5014817;28;19933;-81
2022/07/06 04:56:24;;;;;;;;;;;14.40;99.90;;;;;;5016338;28;19941;-82
2022/07/06 04:58:52;;;;;;;;;;;14.50;99.90;;;;;;5012999;28;20406;-83
2022/07/06 05:01:18;;;;;;;;;;;14.60;99.90;;;;;;5014259;28;19940;-83
2022/07/06 05:03:44;;;;;;;;;;;14.60;99.90;;;;;;5011403;28;19928;-82
2022/07/06 05:06:09;;;;;;;;;;;14.70;99.90;;;;;;5016575;28;20719;-83
2022/07/06 05:08:35;;;;;;;;;;;14.90;99.90;;;;;;5026958;28;19929;-82
2022/07/06 05:11:01;;;;;;;;;;;15.10;99.90;;;;;;5010891;28;20389;-81
2022/07/06 05:13:26;;;;;;;;;;;15.20;99.90;;;;;;5011576;28;19983;-82
2022/07/06 05:15:52;;;;;;;;;;;15.30;99.90;;;;;;5015567;28;19929;-83
2022/07/06 05:18:18;;;;;;;;;;;15.60;99.90;;;;;;5014400;28;19933;-83
2022/07/06 05:20:44;;;;;;;;;;;15.60;99.90;;;;;;4993592;28;19936;-83
2022/07/06 05:23:10;;;;;;;;;;;15.80;99.90;;;;;;4997994;28;19967;-83
2022/07/06 05:25:36;;;;;;;;;;;16.20;99.90;;;;;;5033272;28;20016;-83
2022/07/06 05:28:02;;;;;;;;;;;18.50;99.90;;;;;;5015387;28;19928;-83
2022/07/06 05:30:28;;;;;;;;;;;17.50;99.90;;;;;;5010770;28;19984;-83
2022/07/06 05:32:54;;;;;;;;;;;18.60;99.90;;;;;;5011588;28;20025;-84
2022/07/06 05:35:20;;;;;;;;;;;18.10;99.90;;;;;;5014303;28;19935;-83
2022/07/06 05:37:46;;;;;;;;;;;20.00;99.90;;;;;;5003865;28;22977;-84
2022/07/06 05:40:11;;;;;;;;;;;19.20;99.90;;;;;;4999163;28;20298;-83
2022/07/06 05:42:37;;;;;;;;;;;19.10;99.90;;;;;;4977178;28;19933;-83
2022/07/06 05:45:04;;;;;;;;;;;21.20;99.90;;;;;;4996615;28;20650;-82
2022/07/06 05:50:14;;;;;;;;;;;20.70;99.90;;;;;;5008209;28;20790;-83
2022/07/06 05:52:44;;;;;;;;;;;19.50;99.90;;;;;;5008456;28;19928;-82
2022/07/06 05:55:10;;;;;;;;;;;19.20;99.90;;;;;;4994119;28;19951;-82
2022/07/06 05:57:36;;;;;;;;;;;19.30;99.90;;;;;;5010729;28;19974;-84
2022/07/06 06:00:03;;;;;;;;;;;19.30;99.90;;;;;;5015342;28;20177;-84
2022/07/06 06:02:36;;;;;;;;;;;19.40;99.90;;;;;;5011871;28;19940;-83
2022/07/06 06:05:02;;;;;;;;;;;19.30;99.90;;;;;;5009697;28;20662;-85
2022/07/06 06:07:27;;;;;;;;;;;19.50;99.90;;;;;;5022280;28;19978;-83
2022/07/06 06:09:53;;;;;;;;;;;19.80;99.90;;;;;;5019107;28;20027;-82
2022/07/06 06:12:19;;;;;;;;;;;19.60;99.90;;;;;;5020669;28;19936;-82
2022/07/06 06:14:45;;;;;;;;;;;19.90;99.90;;;;;;5014392;28;19936;-83
2022/07/06 06:17:10;;;;;;;;;;;19.60;99.90;;;;;;5017587;28;19929;-81
2022/07/06 06:19:36;;;;;;;;;;;19.70;99.90;;;;;;5021052;28;20814;-82
2022/07/06 06:22:02;;;;;;;;;;;20.20;99.90;;;;;;5020732;28;20039;-83
2022/07/06 06:24:28;;;;;;;;;;;20.10;99.90;;;;;;5018294;28;19994;-84
2022/07/06 06:26:54;;;;;;;;;;;20.50;99.90;;;;;;5015875;28;20004;-83
2022/07/06 06:29:19;;;;;;;;;;;20.70;99.90;;;;;;5012183;28;19935;-83
2022/07/06 06:31:45;;;;;;;;;;;20.50;99.90;;;;;;5016717;28;19967;-81
2022/07/06 06:34:11;;;;;;;;;;;20.20;99.90;;;;;;5017225;28;19928;-83
2022/07/06 06:36:36;;;;;;;;;;;19.70;99.90;;;;;;5019225;28;19982;-82
2022/07/06 06:39:02;;;;;;;;;;;19.00;99.90;;;;;;5016838;28;19928;-82
2022/07/06 06:41:28;;;;;;;;;;;19.50;99.90;;;;;;5019026;28;19933;-81
2022/07/06 06:43:54;;;;;;;;;;;19.50;99.90;;;;;;5015175;28;19936;-81
2022/07/06 06:46:19;;;;;;;;;;;18.90;99.90;;;;;;5019719;28;19929;-81
2022/07/06 06:48:45;;;;;;;;;;;18.90;99.90;;;;;;5014341;28;20394;-81
2022/07/06 06:51:11;;;;;;;;;;;18.80;99.90;;;;;;5018109;28;19925;-82
2022/07/06 06:53:36;;;;;;;;;;;18.40;99.90;;;;;;5018368;28;19929;-83
2022/07/06 06:56:02;;;;;;;;;;;18.00;99.90;;;;;;5017304;28;19932;-84
2022/07/06 06:58:31;;;;;;;;;;;18.10;99.90;;;;;;5017614;28;19939;-85
2022/07/06 07:00:56;;;;;;;;;;;18.10;99.90;;;;;;5006612;28;20745;-83
2022/07/06 07:03:22;;;;;;;;;;;18.10;99.90;;;;;;5017185;28;19930;-84
2022/07/06 07:05:48;;;;;;;;;;;18.10;99.90;;;;;;5023077;28;20256;-83
2022/07/06 07:08:14;;;;;;;;;;;18.10;99.90;;;;;;5019553;28;19929;-83
2022/07/06 07:10:40;;;;;;;;;;;18.20;99.90;;;;;;5021507;28;20306;-82
2022/07/06 07:13:05;;;;;;;;;;;18.10;99.90;;;;;;4981393;28;19940;-83
2022/07/06 07:15:32;;;;;;;;;;;17.90;99.90;;;;;;4996942;28;19933;-83
2022/07/06 07:17:57;;;;;;;;;;;18.20;99.90;;;;;;4995657;28;19933;-84
2022/07/06 07:20:25;;;;;;;;;;;18.30;99.90;;;;;;4996812;28;19942;-83
2022/07/06 07:22:50;;;;;;;;;;;18.40;99.90;;;;;;4997374;28;20329;-85
2022/07/06 07:25:16;;;;;;;;;;;18.40;99.90;;;;;;4991875;28;19932;-80
2022/07/06 07:27:42;;;;;;;;;;;18.40;99.90;;;;;;5009889;28;20469;-83
2022/07/06 07:30:08;;;;;;;;;;;18.30;99.90;;;;;;5004109;28;20027;-83
2022/07/06 07:32:34;;;;;;;;;;;18.40;99.90;;;;;;5016525;28;20067;-84
2022/07/06 07:35:00;;;;;;;;;;;18.30;99.90;;;;;;5029933;28;19929;-83
2022/07/06 07:37:25;;;;;;;;;;;18.20;99.90;;;;;;5013470;28;20367;-83
2022/07/06 07:39:51;;;;;;;;;;;18.10;99.90;;;;;;5021127;28;19929;-82
2022/07/06 07:42:17;;;;;;;;;;;18.30;99.90;;;;;;5021771;28;19936;-85
2022/07/06 07:44:42;;;;;;;;;;;18.20;99.90;;;;;;5023649;28;19936;-83
2022/07/06 07:47:08;;;;;;;;;;;18.30;99.90;;;;;;5022735;28;19933;-85
2022/07/06 07:49:34;;;;;;;;;;;18.30;99.90;;;;;;5004571;28;20413;-83
2022/07/06 07:51:59;;;;;;;;;;;18.60;99.90;;;;;;5021121;28;19987;-83
2022/07/06 07:54:25;;;;;;;;;;;18.80;99.90;;;;;;5026078;28;19936;-83
2022/07/06 07:56:50;;;;;;;;;;;19.20;99.90;;;;;;5020580;28;19969;-85
2022/07/06 07:59:16;;;;;;;;;;;19.40;99.90;;;;;;5019129;28;22238;-83
2022/07/06 08:01:42;;;;;;;;;;;19.40;99.90;;;;;;5020682;28;19929;-81
2022/07/06 08:04:08;;;;;;;;;;;19.60;99.90;;;;;;5012439;28;20019;-81
2022/07/06 08:06:33;;;;;;;;;;;19.30;99.90;;;;;;5008432;28;19936;-84
2022/07/06 08:08:59;;;;;;;;;;;19.10;99.90;;;;;;4988078;28;20054;-82
2022/07/06 08:11:25;;;;;;;;;;;19.00;99.90;;;;;;5006261;28;20028;-82
2022/07/06 08:13:50;;;;;;;;;;;18.80;99.90;;;;;;5006622;28;20637;-83
2022/07/06 08:16:16;;;;;;;;;;;18.90;99.90;;;;;;5011336;28;19933;-81
2022/07/06 08:18:42;;;;;;;;;;;18.80;99.90;;;;;;5012891;28;19976;-83
2022/07/06 08:21:08;;;;;;;;;;;18.90;99.90;;;;;;5015422;28;19933;-80
2022/07/06 08:23:36;;;;;;;;;;;18.90;99.90;;;;;;5021082;28;19929;-83
2022/07/06 08:26:02;;;;;;;;;;;19.00;99.90;;;;;;5018178;28;20447;-83
2022/07/06 08:28:29;;;;;;;;;;;18.80;99.90;;;;;;5019932;28;19975;-83
2022/07/06 08:30:57;;;;;;;;;;;19.10;99.90;;;;;;5021578;28;20205;-84
2022/07/06 08:33:23;;;;;;;;;;;19.50;99.90;;;;;;4994933;28;20023;-83
2022/07/06 08:35:49;;;;;;;;;;;19.70;99.90;;;;;;4989205;28;20555;-80
2022/07/06 08:38:14;;;;;;;;;;;19.90;99.90;;;;;;4995579;28;19935;-83
2022/07/06 08:40:40;;;;;;;;;;;20.10;99.90;;;;;;4994908;28;19986;-83
2022/07/06 08:43:06;;;;;;;;;;;19.90;99.90;;;;;;5000192;28;19936;-83
2022/07/06 08:45:34;;;;;;;;;;;19.30;99.90;;;;;;4996599;28;19932;-84
2022/07/06 08:48:04;;;;;;;;;;;19.80;99.90;;;;;;4991981;28;20043;-84
2022/07/06 08:50:30;;;;;;;;;;;20.20;99.90;;;;;;4992208;28;20029;-83
2022/07/06 08:52:56;;;;;;;;;;;20.30;99.90;;;;;;4997867;28;20011;-85
2022/07/06 08:55:21;;;;;;;;;;;20.40;99.90;;;;;;4994299;28;19929;-85
2022/07/06 08:57:47;;;;;;;;;;;20.50;99.90;;;;;;4995589;28;20183;-83
2022/07/06 09:00:13;;;;;;;;;;;20.40;99.90;;;;;;4997632;28;19936;-83
2022/07/06 09:02:40;;;;;;;;;;;19.90;99.90;;;;;;4992288;28;20039;-83
2022/07/06 09:05:06;;;;;;;;;;;19.90;99.90;;;;;;4997342;28;19932;-83
2022/07/06 09:07:32;;;;;;;;;;;20.10;99.90;;;;;;4996514;28;20004;-86
2022/07/06 09:09:59;;;;;;;;;;;20.20;99.90;;;;;;5001600;28;20020;-85
2022/07/06 09:12:26;;;;;;;;;;;20.00;99.90;;;;;;4993485;28;19937;-84
2022/07/06 09:14:54;;;;;;;;;;;19.90;99.90;;;;;;4994993;28;19938;-84
2022/07/06 09:17:19;;;;;;;;;;;19.90;99.90;;;;;;4995109;28;20090;-83
2022/07/06 09:19:46;;;;;;;;;;;19.90;99.90;;;;;;4977272;28;19928;-79
2022/07/06 09:22:24;;;;;;;;;;;20.10;99.90;;;;;;4997484;28;20057;-83
2022/07/06 09:25:14;;;;;;;;;;;20.40;99.90;;;;;;4993809;28;19935;-86
2022/07/06 09:27:47;;;;;;;;;;;20.50;99.90;;;;;;4993474;28;19936;-86
2022/07/06 09:30:14;;;;;;;;;;;21.00;99.90;;;;;;4978570;28;19929;-84
2022/07/06 09:32:40;;;;;;;;;;;21.70;99.90;;;;;;4997267;28;20646;-84
2022/07/06 09:35:05;;;;;;;;;;;21.90;99.90;;;;;;4993126;28;19936;-84
2022/07/06 09:37:31;;;;;;;;;;;21.40;99.90;;;;;;4991612;28;19928;-83
2022/07/06 09:39:57;;;;;;;;;;;21.00;99.90;;;;;;5004968;28;19936;-85
2022/07/06 09:42:26;;;;;;;;;;;21.30;99.90;;;;;;5000974;28;20012;-83
2022/07/06 09:44:51;;;;;;;;;;;21.80;99.90;;;;;;4997973;28;20687;-84
2022/07/06 09:47:17;;;;;;;;;;;22.20;99.90;;;;;;4997638;28;19933;-84
2022/07/06 09:49:45;;;;;;;;;;;22.20;99.90;;;;;;4978136;28;19951;-85
2022/07/06 09:52:11;;;;;;;;;;;22.30;99.90;;;;;;4975132;28;19935;-84
2022/07/06 09:54:38;;;;;;;;;;;22.10;99.90;;;;;;4997487;28;19929;-86
2022/07/06 09:57:05;;;;;;;;;;;21.50;99.90;;;;;;4993636;28;19929;-84
2022/07/06 09:59:31;;;;;;;;;;;21.70;99.90;;;;;;5007874;28;20518;-84
2022/07/06 10:01:58;;;;;;;;;;;22.20;99.90;;;;;;4981224;28;19928;-85
2022/07/06 10:04:24;;;;;;;;;;;22.20;99.90;;;;;;5001794;28;19975;-86
2022/07/06 10:06:51;;;;;;;;;;;22.20;99.90;;;;;;5006229;28;19990;-85
2022/07/06 10:09:18;;;;;;;;;;;22.70;99.90;;;;;;4978052;28;19936;-87
2022/07/06 10:11:45;;;;;;;;;;;22.90;99.90;;;;;;5003954;28;19994;-89
2022/07/06 10:14:11;;;;;;;;;;;22.40;99.90;;;;;;5003375;28;19968;-87
2022/07/06 10:16:38;;;;;;;;;;;22.10;99.90;;;;;;5006766;28;19928;-84
2022/07/06 10:19:05;;;;;;;;;;;21.90;99.90;;;;;;5004055;28;20673;-88
2022/07/06 10:21:31;;;;;;;;;;;21.50;99.90;;;;;;5004462;28;20419;-86
2022/07/06 10:23:59;;;;;;;;;;;21.60;99.90;;;;;;4967453;28;19968;-85
2022/07/06 10:26:25;;;;;;;;;;;22.60;99.90;;;;;;5006323;28;19932;-84
2022/07/06 10:28:52;;;;;;;;;;;22.60;99.90;;;;;;4988487;28;19982;-82
2022/07/06 10:31:19;;;;;;;;;;;23.30;99.90;;;;;;5003324;28;20012;-83
2022/07/06 10:33:45;;;;;;;;;;;23.00;99.90;;;;;;4988478;28;19928;-85
2022/07/06 10:36:11;;;;;;;;;;;23.10;99.90;;;;;;4995200;28;20015;-85
2022/07/06 10:38:37;;;;;;;;;;;23.50;99.90;;;;;;4998201;28;19929;-85
2022/07/06 10:41:03;;;;;;;;;;;23.10;99.90;;;;;;4990126;28;19987;-83
2022/07/06 10:43:41;;;;;;;;;;;22.70;99.90;;;;;;4994646;28;20614;-85
2022/07/06 10:46:15;;;;;;;;;;;22.30;99.90;;;;;;5006983;28;19937;-84
2022/07/06 10:48:42;;;;;;;;;;;22.00;99.90;;;;;;5012746;28;19995;-86
2022/07/06 10:51:08;;;;;;;;;;;22.20;99.90;;;;;;5009071;28;20091;-82
2022/07/06 10:53:35;;;;;;;;;;;22.20;99.90;;;;;;5014970;28;20443;-85
2022/07/06 10:56:05;;;;;;;;;;;21.80;99.90;;;;;;5012105;28;19933;-84
2022/07/06 10:58:34;;;;;;;;;;;21.70;99.90;;;;;;5016648;28;20835;-87
2022/07/06 11:01:00;;;;;;;;;;;22.30;99.90;;;;;;5016204;28;19963;-82
2022/07/06 11:03:33;;;;;;;;;;;22.60;99.90;;;;;;5012798;28;19929;-84
2022/07/06 11:06:09;;;;;;;;;;;23.20;99.90;;;;;;5014462;28;19939;-84
2022/07/06 11:08:42;;;;;;;;;;;23.50;99.90;;;;;;5013987;28;19929;-85
2022/07/06 11:11:16;;;;;;;;;;;23.50;99.90;;;;;;5006695;28;19933;-86
2022/07/06 11:13:43;;;;;;;;;;;23.80;99.90;;;;;;5017779;28;19929;-85
2022/07/06 11:16:08;;;;;;;;;;;23.70;99.90;;;;;;5012062;28;20091;-85
2022/07/06 11:18:41;;;;;;;;;;;23.10;99.90;;;;;;5015992;28;20425;-83
2022/07/06 11:21:23;;;;;;;;;;;23.40;99.90;;;;;;5013434;28;20516;-84
2022/07/06 11:23:52;;;;;;;;;;;23.60;99.90;;;;;;5015934;28;20334;-83
2022/07/06 11:26:18;;;;;;;;;;;24.20;99.90;;;;;;5020442;28;20351;-86
2022/07/06 11:28:45;;;;;;;;;;;24.80;99.90;;;;;;5018424;28;20418;-84
2022/07/06 11:31:11;;;;;;;;;;;24.80;99.90;;;;;;5014487;28;20333;-82
2022/07/06 11:33:37;;;;;;;;;;;24.90;99.90;;;;;;5020504;28;19929;-83
2022/07/06 11:36:12;;;;;;;;;;;24.50;99.90;;;;;;5016162;28;19939;-84
2022/07/06 11:38:38;;;;;;;;;;;24.20;99.90;;;;;;4998959;28;20508;-86
2022/07/06 11:41:04;;;;;;;;;;;23.40;98.80;;;;;;5017585;28;20512;-85
2022/07/06 11:43:30;;;;;;;;;;;23.20;99.10;;;;;;4998236;28;19935;-84
2022/07/06 11:45:56;;;;;;;;;;;23.90;99.90;;;;;;5033982;28;19932;-86
2022/07/06 11:48:21;;;;;;;;;;;24.00;99.50;;;;;;5003254;28;19928;-85
2022/07/06 11:51:00;;;;;;;;;;;24.40;99.90;;;;;;5018354;28;19932;-83
2022/07/06 11:53:26;;;;;;;;;;;24.00;99.90;;;;;;5014449;28;20429;-85
2022/07/06 11:55:52;;;;;;;;;;;23.70;99.90;;;;;;5019936;28;19936;-83
2022/07/06 11:58:22;;;;;;;;;;;23.30;99.90;;;;;;5020245;28;19932;-84
2022/07/06 12:01:07;;;;;;;;;;;23.70;99.90;;;;;;5021557;28;20527;-85
2022/07/06 12:03:34;;;;;;;;;;;24.20;99.90;;;;;;5017059;28;19929;-85
2022/07/06 12:06:01;;;;;;;;;;;24.90;99.90;;;;;;5019385;28;20494;-85
2022/07/06 12:08:27;;;;;;;;;;;24.50;99.40;;;;;;5019941;28;19968;-81
2022/07/06 12:10:53;;;;;;;;;;;24.10;99.20;;;;;;5016868;28;20043;-86
2022/07/06 12:13:18;;;;;;;;;;;23.50;99.20;;;;;;5013875;28;20096;-85
2022/07/06 12:15:44;;;;;;;;;;;22.90;99.80;;;;;;4993506;28;19936;-86
2022/07/06 12:18:10;;;;;;;;;;;22.70;99.90;;;;;;5014303;28;19929;-85
2022/07/06 12:20:36;;;;;;;;;;;22.70;99.90;;;;;;5018093;28;20328;-87
2022/07/06 12:23:02;;;;;;;;;;;22.60;99.90;;;;;;5015290;28;19935;-86
2022/07/06 12:25:32;;;;;;;;;;;22.70;99.90;;;;;;5018851;28;19940;-86
2022/07/06 12:27:58;;;;;;;;;;;23.20;99.90;;;;;;5000581;28;19935;-84
2022/07/06 12:30:23;;;;;;;;;;;23.80;99.90;;;;;;5024868;28;19928;-87
2022/07/06 12:33:08;;;;;;;;;;;23.40;99.90;;;;;;5019115;28;19965;-86
2022/07/06 12:35:34;;;;;;;;;;;23.10;99.90;;;;;;5016270;28;19929;-87
2022/07/06 12:38:00;;;;;;;;;;;22.90;99.90;;;;;;5020815;28;19929;-83
2022/07/06 12:40:29;;;;;;;;;;;22.70;99.90;;;;;;5023415;28;19956;-86
2022/07/06 12:42:55;;;;;;;;;;;22.30;99.90;;;;;;5019455;28;19925;-86
2022/07/06 12:45:25;;;;;;;;;;;21.80;99.90;;;;;;5027949;28;19991;-84
2022/07/06 12:48:02;;;;;;;;;;;21.70;99.90;;;;;;4993014;28;20721;-83
2022/07/06 12:50:32;;;;;;;;;;;21.70;99.90;;;;;;5018906;28;20140;-86
2022/07/06 12:52:58;;;;;;;;;;;22.00;99.90;;;;;;4995339;28;19941;-82
2022/07/06 12:55:28;;;;;;;;;;;21.90;99.90;;;;;;5016036;28;19929;-83
2022/07/06 12:57:54;;;;;;;;;;;21.90;99.90;;;;;;5019853;28;19951;-84
2022/07/06 13:00:21;;;;;;;;;;;21.80;99.90;;;;;;5020020;28;20032;-86
2022/07/06 13:02:55;;;;;;;;;;;21.90;99.90;;;;;;4993698;28;20005;-85
2022/07/06 13:05:29;;;;;;;;;;;21.80;99.90;;;;;;5000256;28;19932;-84
2022/07/06 13:07:56;;;;;;;;;;;22.10;99.90;;;;;;4996566;28;19929;-85
2022/07/06 13:10:22;;;;;;;;;;;22.50;99.90;;;;;;4997162;28;20095;-82
2022/07/06 13:12:48;;;;;;;;;;;23.00;99.90;;;;;;4997012;28;19937;-84
2022/07/06 13:15:14;;;;;;;;;;;22.30;99.90;;;;;;4999048;28;20865;-87
2022/07/06 13:17:40;;;;;;;;;;;22.10;99.90;;;;;;4994457;28;19969;-84
2022/07/06 13:20:07;;;;;;;;;;;22.10;99.90;;;;;;4998896;28;19929;-83
2022/07/06 13:22:33;;;;;;;;;;;22.50;99.90;;;;;;4978298;28;19964;-83
2022/07/06 13:24:59;;;;;;;;;;;22.80;99.90;;;;;;4992764;28;20255;-84
2022/07/06 13:27:25;;;;;;;;;;;22.60;99.90;;;;;;4997580;28;20012;-84
2022/07/06 13:29:51;;;;;;;;;;;22.20;99.90;;;;;;4993952;28;20478;-83
2022/07/06 13:32:16;;;;;;;;;;;22.20;99.90;;;;;;4993910;28;20517;-86
2022/07/06 13:34:42;;;;;;;;;;;22.20;99.90;;;;;;4999122;28;19928;-84
2022/07/06 13:37:08;;;;;;;;;;;22.20;99.90;;;;;;4999187;28;19937;-83
2022/07/06 13:39:41;;;;;;;;;;;23.20;99.90;;;;;;4998482;28;21114;-85
2022/07/06 13:42:08;;;;;;;;;;;23.00;99.90;;;;;;4997106;28;19929;-84
2022/07/06 13:44:34;;;;;;;;;;;22.70;99.90;;;;;;4996792;28;20423;-84
2022/07/06 13:47:00;;;;;;;;;;;23.40;99.90;;;;;;4996677;28;19940;-84
2022/07/06 13:49:26;;;;;;;;;;;23.50;99.90;;;;;;4998822;28;20602;-85
2022/07/06 13:51:51;;;;;;;;;;;23.20;99.90;;;;;;4994722;28;20268;-87
2022/07/06 13:54:17;;;;;;;;;;;22.70;99.90;;;;;;4978640;28;20508;-85
2022/07/06 13:56:43;;;;;;;;;;;22.80;99.90;;;;;;4981407;28;19979;-83
2022/07/06 13:59:08;;;;;;;;;;;22.90;99.90;;;;;;4999256;28;19932;-85
2022/07/06 14:01:34;;;;;;;;;;;22.80;99.90;;;;;;4998626;28;19934;-85
2022/07/06 14:04:00;;;;;;;;;;;22.50;99.90;;;;;;5002989;28;19932;-83
2022/07/06 14:06:25;;;;;;;;;;;22.20;99.90;;;;;;4997521;28;19936;-83
2022/07/06 14:08:51;;;;;;;;;;;22.00;99.90;;;;;;4996003;28;19937;-83
2022/07/06 14:11:17;;;;;;;;;;;21.80;99.90;;;;;;5019709;28;19940;-84
2022/07/06 14:13:43;;;;;;;;;;;21.70;99.90;;;;;;4977931;28;19983;-85
2022/07/06 14:16:09;;;;;;;;;;;21.60;99.90;;;;;;4979628;28;19929;-82
2022/07/06 14:18:34;;;;;;;;;;;21.50;99.90;;;;;;4996305;28;19995;-84